Time;durP1;ratioP1;P1;durP2;ratioP2;P2;SDS_P1;SDS_P2;PMS_P1;PMS_P2;Temp;Humidity;BMP_temperature;BMP_pressure;BME280_temperature;BME280_humidity;BME280_pressure;Samples;Min_cycle;Max_cycle;Signal;HPM_P1;HPM_P2
2021/04/22 00:01:46;;;;;;;12.07;5.63;;;3.40;99.90;;;;;;5020056;28;20202;-86
2021/04/22 00:04:13;;;;;;;12.77;4.47;;;3.50;99.90;;;;;;5050052;28;20195;-86
2021/04/22 00:06:40;;;;;;;13.07;6.60;;;3.50;99.90;;;;;;5037538;28;20204;-86
2021/04/22 00:09:08;;;;;;;13.45;5.47;;;3.40;99.90;;;;;;5039162;28;20195;-86
2021/04/22 00:11:35;;;;;;;13.10;5.15;;;3.40;99.90;;;;;;5031716;28;20190;-86
2021/04/22 00:14:01;;;;;;;11.77;4.60;;;3.30;99.90;;;;;;5024963;28;20195;-86
2021/04/22 00:16:27;;;;;;;18.98;5.38;;;3.20;99.90;;;;;;5027548;28;20294;-86
2021/04/22 00:18:53;;;;;;;11.35;4.32;;;3.20;99.90;;;;;;5016927;28;20270;-86
2021/04/22 00:21:20;;;;;;;14.73;5.65;;;3.20;99.90;;;;;;5020509;28;20209;-86
2021/04/22 00:23:47;;;;;;;16.48;5.63;;;3.20;99.90;;;;;;5030732;28;20192;-86
2021/04/22 00:26:13;;;;;;;12.57;4.93;;;3.20;99.90;;;;;;5037091;28;20215;-86
2021/04/22 00:28:39;;;;;;;14.18;5.03;;;3.20;99.90;;;;;;5030560;28;20204;-86
2021/04/22 00:31:06;;;;;;;15.27;5.53;;;3.10;99.90;;;;;;5038883;28;20336;-86
2021/04/22 00:33:32;;;;;;;12.25;6.25;;;3.10;99.90;;;;;;5035261;28;20277;-86
2021/04/22 00:35:58;;;;;;;18.42;8.65;;;3.10;99.90;;;;;;5035421;28;20369;-86
2021/04/22 00:38:25;;;;;;;16.52;8.88;;;3.00;99.90;;;;;;5029673;28;20191;-86
2021/04/22 00:40:52;;;;;;;26.45;11.85;;;2.90;99.90;;;;;;5032731;28;20260;-86
2021/04/22 00:43:20;;;;;;;21.02;10.70;;;2.90;99.90;;;;;;5023863;28;20219;-86
2021/04/22 00:45:47;;;;;;;24.45;10.75;;;2.90;99.90;;;;;;5019443;28;20256;-86
2021/04/22 00:48:16;;;;;;;24.48;10.55;;;2.90;99.90;;;;;;5021244;28;20197;-86
2021/04/22 00:50:43;;;;;;;30.48;10.80;;;2.80;99.90;;;;;;5020852;28;20194;-86
2021/04/22 00:53:10;;;;;;;18.35;7.72;;;2.80;99.90;;;;;;5026764;28;20199;-86
2021/04/22 00:55:38;;;;;;;17.02;6.75;;;2.70;99.90;;;;;;5015375;28;20198;-86
2021/04/22 00:58:07;;;;;;;15.70;6.28;;;2.70;99.90;;;;;;5016316;28;20187;-87
2021/04/22 01:00:35;;;;;;;14.43;5.03;;;2.70;99.90;;;;;;5021349;28;20208;-86
2021/04/22 01:03:02;;;;;;;11.23;4.05;;;2.60;99.90;;;;;;5034323;28;20195;-86
2021/04/22 01:05:31;;;;;;;12.30;4.90;;;2.50;99.90;;;;;;5016316;28;20240;-86
2021/04/22 01:07:58;;;;;;;22.83;6.80;;;2.40;99.90;;;;;;5022685;28;20665;-86
2021/04/22 01:10:24;;;;;;;13.27;5.28;;;2.40;99.90;;;;;;5014704;28;20532;-86
2021/04/22 01:12:51;;;;;;;12.25;5.18;;;2.30;99.90;;;;;;5024113;28;20257;-86
2021/04/22 01:15:20;;;;;;;13.13;5.15;;;2.20;99.90;;;;;;5015858;28;20646;-86
2021/04/22 01:17:47;;;;;;;15.77;5.15;;;2.10;99.90;;;;;;5014135;28;20193;-86
2021/04/22 01:20:18;;;;;;;10.02;4.18;;;2.00;99.90;;;;;;5015168;28;20194;-86
2021/04/22 01:22:46;;;;;;;8.85;4.10;;;2.00;99.90;;;;;;5014407;28;20198;-86
2021/04/22 01:25:15;;;;;;;24.45;7.20;;;2.00;99.90;;;;;;5014481;28;20217;-86
2021/04/22 01:27:41;;;;;;;10.43;5.00;;;2.00;99.90;;;;;;5013935;28;20190;-86
2021/04/22 01:30:12;;;;;;;19.02;5.55;;;1.90;99.90;;;;;;5014041;28;20193;-86
2021/04/22 01:32:38;;;;;;;16.02;7.32;;;1.90;99.90;;;;;;5013517;28;20202;-86
2021/04/22 01:35:06;;;;;;;10.68;5.38;;;1.90;99.90;;;;;;5014224;28;20194;-86
2021/04/22 01:37:33;;;;;;;9.40;4.68;;;1.90;99.90;;;;;;5014052;28;20189;-86
2021/04/22 01:40:00;;;;;;;15.57;5.38;;;1.90;99.90;;;;;;5023663;28;20710;-86
2021/04/22 01:42:26;;;;;;;12.43;5.95;;;1.90;99.90;;;;;;5014823;28;20196;-86
2021/04/22 01:44:53;;;;;;;13.48;5.35;;;1.80;99.90;;;;;;5017799;28;20548;-86
2021/04/22 01:47:19;;;;;;;13.48;5.63;;;1.90;99.90;;;;;;5015244;28;20190;-86
2021/04/22 01:49:45;;;;;;;10.88;5.80;;;1.80;99.90;;;;;;5034325;28;20662;-86
2021/04/22 01:52:12;;;;;;;8.38;4.38;;;1.80;99.90;;;;;;5049512;28;20603;-86
2021/04/22 01:54:38;;;;;;;18.73;6.43;;;1.80;99.90;;;;;;5027585;28;20201;-86
2021/04/22 01:57:06;;;;;;;13.93;6.45;;;1.80;99.90;;;;;;5017398;28;20196;-86
2021/04/22 01:59:33;;;;;;;21.80;7.45;;;1.80;99.90;;;;;;5029734;28;20185;-86
2021/04/22 02:01:59;;;;;;;20.38;6.07;;;1.70;99.90;;;;;;5035175;28;20189;-86
2021/04/22 02:04:25;;;;;;;11.38;5.20;;;1.70;99.90;;;;;;5026544;28;20555;-86
2021/04/22 02:06:52;;;;;;;10.52;6.00;;;1.70;99.90;;;;;;5032494;28;20192;-86
2021/04/22 02:09:18;;;;;;;15.40;5.20;;;1.70;99.90;;;;;;5022368;28;20244;-86
2021/04/22 02:11:44;;;;;;;17.02;6.10;;;1.60;99.90;;;;;;5037757;28;20197;-86
2021/04/22 02:14:11;;;;;;;15.65;5.78;;;1.60;99.90;;;;;;5024037;28;20200;-86
2021/04/22 02:16:38;;;;;;;12.73;5.80;;;1.70;99.90;;;;;;5030072;28;20198;-86
2021/04/22 02:19:05;;;;;;;17.25;5.85;;;1.60;99.90;;;;;;5028987;28;20199;-86
2021/04/22 02:21:32;;;;;;;12.35;5.60;;;1.60;99.90;;;;;;5018561;28;20197;-86
2021/04/22 02:23:58;;;;;;;18.35;5.75;;;1.60;99.90;;;;;;5028253;28;20199;-87
2021/04/22 02:26:25;;;;;;;13.93;7.65;;;1.50;99.90;;;;;;5037077;28;20211;-86
2021/04/22 02:28:51;;;;;;;10.77;4.32;;;1.50;99.90;;;;;;5037358;28;20196;-86
2021/04/22 02:31:19;;;;;;;20.70;6.25;;;1.50;99.90;;;;;;5037117;28;20184;-86
2021/04/22 02:33:46;;;;;;;15.18;5.38;;;1.40;99.90;;;;;;5024056;28;20228;-86
2021/04/22 02:36:13;;;;;;;21.20;6.45;;;1.40;99.90;;;;;;5027014;28;20185;-86
2021/04/22 02:38:39;;;;;;;19.15;6.15;;;1.30;99.90;;;;;;5045714;28;20192;-86
2021/04/22 02:41:06;;;;;;;19.90;6.28;;;1.30;99.90;;;;;;5046157;28;20187;-86
2021/04/22 02:43:32;;;;;;;13.20;4.65;;;1.20;99.90;;;;;;5030058;28;20216;-86
2021/04/22 02:45:58;;;;;;;15.88;5.15;;;1.20;99.90;;;;;;5036333;28;20222;-86
2021/04/22 02:48:26;;;;;;;11.15;5.05;;;1.20;99.90;;;;;;5025877;28;20550;-86
2021/04/22 02:50:54;;;;;;;20.00;5.43;;;1.30;99.90;;;;;;5016752;28;20204;-86
2021/04/22 02:53:22;;;;;;;17.67;5.60;;;1.30;99.90;;;;;;5017454;28;20193;-86
2021/04/22 02:55:49;;;;;;;8.45;4.55;;;1.40;99.90;;;;;;5016466;28;20198;-86
2021/04/22 02:58:16;;;;;;;14.10;5.68;;;1.40;99.90;;;;;;5023929;28;20210;-86
2021/04/22 03:00:44;;;;;;;16.77;5.63;;;1.40;99.90;;;;;;5036469;28;20199;-86
2021/04/22 03:03:10;;;;;;;13.57;6.05;;;1.40;99.90;;;;;;5024515;28;20200;-85
2021/04/22 03:05:38;;;;;;;16.25;6.95;;;1.40;99.90;;;;;;5016371;28;20221;-85
2021/04/22 03:08:06;;;;;;;16.73;6.03;;;1.40;99.90;;;;;;5020469;28;20581;-85
2021/04/22 03:10:33;;;;;;;22.58;8.07;;;1.40;99.90;;;;;;5016776;28;20648;-86
2021/04/22 03:13:00;;;;;;;11.48;5.93;;;1.40;99.90;;;;;;5024008;28;20186;-86
2021/04/22 03:15:27;;;;;;;11.80;5.95;;;1.40;99.90;;;;;;5035295;28;20187;-85
2021/04/22 03:17:53;;;;;;;16.15;5.10;;;1.30;99.90;;;;;;5027924;28;20566;-85
2021/04/22 03:20:21;;;;;;;8.70;4.90;;;1.30;99.90;;;;;;5016002;28;20247;-85
2021/04/22 03:22:48;;;;;;;25.58;8.32;;;1.30;99.90;;;;;;5016248;28;20194;-85
2021/04/22 03:25:16;;;;;;;13.25;5.30;;;1.30;99.90;;;;;;5016543;28;20216;-85
2021/04/22 03:27:42;;;;;;;13.02;6.68;;;1.30;99.90;;;;;;5016392;28;20196;-86
2021/04/22 03:30:11;;;;;;;12.45;6.60;;;1.30;99.90;;;;;;5015995;28;20192;-85
2021/04/22 03:32:38;;;;;;;12.80;5.45;;;1.30;99.90;;;;;;5016187;28;20245;-85
2021/04/22 03:35:05;;;;;;;11.55;6.45;;;1.20;99.90;;;;;;5024433;28;20193;-85
2021/04/22 03:37:31;;;;;;;17.05;6.78;;;1.10;99.90;;;;;;5021189;28;20193;-86
2021/04/22 03:39:59;;;;;;;12.15;6.00;;;1.00;99.90;;;;;;5036943;28;20193;-85
2021/04/22 03:42:25;;;;;;;14.55;5.30;;;1.00;99.90;;;;;;5022941;28;20680;-85
2021/04/22 03:44:53;;;;;;;12.20;6.13;;;1.00;99.90;;;;;;5016529;28;20314;-85
2021/04/22 03:47:20;;;;;;;14.45;5.63;;;0.90;99.90;;;;;;5027181;28;20660;-85
2021/04/22 03:49:46;;;;;;;16.08;7.65;;;0.80;99.90;;;;;;5036545;28;20282;-85
2021/04/22 03:52:13;;;;;;;15.45;5.82;;;0.70;99.90;;;;;;5030504;28;20181;-85
2021/04/22 03:54:39;;;;;;;18.73;8.70;;;0.70;99.90;;;;;;5025230;28;20225;-85
2021/04/22 03:57:07;;;;;;;21.00;6.05;;;0.60;99.90;;;;;;5020953;28;20182;-85
2021/04/22 03:59:34;;;;;;;19.80;8.13;;;0.60;99.90;;;;;;5036356;28;20234;-85
2021/04/22 04:02:00;;;;;;;14.40;5.90;;;0.60;99.90;;;;;;5031829;28;20539;-85
2021/04/22 04:04:27;;;;;;;13.90;6.65;;;0.50;99.90;;;;;;5033770;28;20181;-85
2021/04/22 04:06:54;;;;;;;17.15;6.82;;;0.50;99.90;;;;;;5031584;28;20185;-85
2021/04/22 04:09:20;;;;;;;16.83;6.65;;;0.50;99.90;;;;;;5034184;28;20194;-85
2021/04/22 04:11:46;;;;;;;14.57;8.05;;;0.40;99.90;;;;;;5021643;28;20658;-85
2021/04/22 04:14:14;;;;;;;19.42;7.15;;;0.40;99.90;;;;;;5021797;28;20240;-85
2021/04/22 04:16:40;;;;;;;26.25;7.57;;;0.30;99.90;;;;;;5032758;28;20399;-85
2021/04/22 04:19:07;;;;;;;13.77;6.75;;;0.30;99.90;;;;;;5020014;28;20182;-85
2021/04/22 04:21:33;;;;;;;14.25;6.47;;;0.20;99.90;;;;;;5028210;28;20194;-85
2021/04/22 04:23:59;;;;;;;16.42;6.05;;;0.20;99.90;;;;;;5016520;28;20206;-85
2021/04/22 04:26:26;;;;;;;15.55;7.28;;;0.20;99.90;;;;;;5028507;28;20202;-85
2021/04/22 04:28:52;;;;;;;13.75;8.38;;;0.30;99.90;;;;;;5039716;28;20185;-85
2021/04/22 04:31:19;;;;;;;22.52;8.85;;;0.20;99.90;;;;;;5054811;28;20252;-84
2021/04/22 04:33:47;;;;;;;21.85;7.38;;;0.20;99.90;;;;;;5034233;28;20213;-85
2021/04/22 04:36:13;;;;;;;17.55;6.78;;;0.20;99.90;;;;;;5017408;28;20185;-84
2021/04/22 04:38:39;;;;;;;17.98;9.52;;;0.20;99.90;;;;;;5022582;28;20260;-85
2021/04/22 04:41:06;;;;;;;18.02;6.68;;;0.20;99.90;;;;;;5039664;28;20177;-85
2021/04/22 04:43:32;;;;;;;27.55;8.20;;;0.30;99.90;;;;;;5039481;28;20200;-85
2021/04/22 04:45:58;;;;;;;24.80;9.93;;;0.30;99.90;;;;;;5039049;28;20322;-85
2021/04/22 04:48:26;;;;;;;22.90;9.02;;;0.40;99.90;;;;;;5039104;28;20229;-85
2021/04/22 04:50:52;;;;;;;17.00;7.25;;;0.50;99.90;;;;;;5035600;28;20197;-85
2021/04/22 04:53:18;;;;;;;12.10;6.75;;;0.60;99.90;;;;;;5045225;28;20258;-85
2021/04/22 04:55:44;;;;;;;21.80;9.13;;;0.80;99.90;;;;;;5034241;28;20217;-85
2021/04/22 04:58:11;;;;;;;15.18;6.85;;;0.90;99.90;;;;;;5043657;28;20219;-85
2021/04/22 05:00:37;;;;;;;18.58;9.13;;;1.10;99.90;;;;;;5036943;28;20197;-85
2021/04/22 05:03:04;;;;;;;15.18;9.50;;;1.30;99.90;;;;;;5023457;28;20192;-85
2021/04/22 05:05:31;;;;;;;18.13;9.25;;;1.50;99.90;;;;;;5018580;28;20217;-85
2021/04/22 05:07:57;;;;;;;23.95;9.20;;;1.70;99.90;;;;;;5023465;28;20197;-84
2021/04/22 05:10:23;;;;;;;18.13;8.43;;;2.00;99.90;;;;;;5026445;28;20234;-86
2021/04/22 05:12:50;;;;;;;17.48;6.25;;;2.20;99.90;;;;;;5033832;28;20203;-87
2021/04/22 05:15:17;;;;;;;18.40;7.78;;;2.30;99.90;;;;;;5036323;28;20282;-86
2021/04/22 05:17:43;;;;;;;21.63;9.43;;;2.40;99.90;;;;;;5040195;28;20190;-85
2021/04/22 05:20:11;;;;;;;13.43;7.82;;;2.60;99.90;;;;;;5040492;28;20204;-85
2021/04/22 05:22:38;;;;;;;18.42;7.20;;;2.70;99.90;;;;;;5042084;28;20523;-87
2021/04/22 05:25:06;;;;;;;12.55;7.45;;;2.90;99.90;;;;;;5037110;28;20206;-87
2021/04/22 05:27:32;;;;;;;15.45;7.32;;;3.00;99.90;;;;;;5021449;28;20189;-87
2021/04/22 05:29:58;;;;;;;18.48;7.20;;;3.10;99.90;;;;;;5016849;28;20221;-87
2021/04/22 05:32:25;;;;;;;17.55;7.53;;;3.30;99.90;;;;;;5049241;28;20237;-88
2021/04/22 05:34:52;;;;;;;14.13;6.10;;;3.30;99.90;;;;;;5046032;28;20198;-88
2021/04/22 05:37:18;;;;;;;14.18;6.93;;;3.50;99.90;;;;;;5050136;28;20229;-88
2021/04/22 05:39:46;;;;;;;17.13;7.65;;;3.60;99.90;;;;;;5036353;28;20181;-84
2021/04/22 05:42:12;;;;;;;10.73;7.05;;;3.70;99.90;;;;;;5050678;28;20188;-86
2021/04/22 05:44:39;;;;;;;16.15;7.22;;;3.70;99.90;;;;;;5035623;28;20228;-87
2021/04/22 05:47:05;;;;;;;14.60;7.05;;;3.80;99.90;;;;;;5052381;28;20224;-87
2021/04/22 05:49:32;;;;;;;22.73;8.32;;;3.90;99.90;;;;;;5043661;28;20195;-89
2021/04/22 05:51:58;;;;;;;26.75;7.88;;;4.00;99.90;;;;;;5047465;28;20182;-91
2021/04/22 05:54:25;;;;;;;18.27;7.38;;;4.10;99.90;;;;;;5046346;28;20225;-89
2021/04/22 05:56:52;;;;;;;22.23;7.25;;;4.20;99.90;;;;;;5057656;28;20186;-91
2021/04/22 05:59:18;;;;;;;24.17;9.38;;;4.20;99.90;;;;;;5051406;28;20255;-89
2021/04/22 06:01:47;;;;;;;16.38;9.25;;;4.20;99.90;;;;;;5038526;28;20176;-90
2021/04/22 06:04:14;;;;;;;15.43;7.20;;;4.10;99.90;;;;;;5047935;28;20218;-89
2021/04/22 06:06:40;;;;;;;20.30;8.30;;;4.10;99.90;;;;;;5055670;28;20233;-88
2021/04/22 06:09:07;;;;;;;16.20;8.35;;;4.10;99.90;;;;;;5045607;28;20210;-91
2021/04/22 06:11:33;;;;;;;19.95;6.38;;;4.20;99.90;;;;;;5037255;28;20196;-88
2021/04/22 06:14:01;;;;;;;20.67;9.00;;;4.30;99.90;;;;;;5038425;28;20532;-89
2021/04/22 06:16:27;;;;;;;15.55;6.78;;;4.40;99.90;;;;;;5037475;28;20194;-89
2021/04/22 06:18:54;;;;;;;18.25;6.90;;;4.60;99.90;;;;;;5037819;28;20184;-88
2021/04/22 06:21:20;;;;;;;24.33;6.85;;;4.70;99.90;;;;;;5045734;28;20208;-87
2021/04/22 06:23:46;;;;;;;14.52;6.30;;;4.80;99.90;;;;;;5053927;28;20287;-87
2021/04/22 06:26:18;;;;;;;23.52;6.88;;;5.00;99.90;;;;;;5044640;28;20232;-86
2021/04/22 06:28:44;;;;;;;11.75;5.80;;;5.20;99.90;;;;;;5043332;28;20208;-86
2021/04/22 06:31:11;;;;;;;12.63;6.25;;;5.40;99.90;;;;;;5042827;28;20199;-85
2021/04/22 06:33:38;;;;;;;15.48;6.93;;;5.50;99.90;;;;;;5043127;28;20252;-87
2021/04/22 06:36:05;;;;;;;14.80;6.32;;;5.70;99.90;;;;;;5027264;28;20277;-85
2021/04/22 06:38:31;;;;;;;12.60;6.47;;;5.80;99.90;;;;;;5044243;28;20193;-86
2021/04/22 06:40:58;;;;;;;17.55;6.20;;;6.00;99.90;;;;;;5051325;28;20252;-86
2021/04/22 06:43:24;;;;;;;11.73;5.53;;;6.00;99.90;;;;;;5049729;28;20192;-86
2021/04/22 06:45:53;;;;;;;14.73;6.72;;;6.00;99.90;;;;;;5049466;28;20204;-87
2021/04/22 06:48:21;;;;;;;9.88;5.32;;;6.10;99.90;;;;;;5048648;28;20194;-85
2021/04/22 06:50:48;;;;;;;9.48;6.28;;;6.20;99.90;;;;;;5045186;28;20184;-84
2021/04/22 06:53:15;;;;;;;14.52;4.82;;;6.30;99.90;;;;;;5047587;28;20185;-84
2021/04/22 06:55:41;;;;;;;12.98;4.57;;;6.40;99.90;;;;;;5041106;28;20197;-84
2021/04/22 06:58:08;;;;;;;15.98;4.75;;;6.50;99.90;;;;;;5027186;28;20189;-84
2021/04/22 07:00:36;;;;;;;8.95;4.40;;;6.50;99.90;;;;;;5056613;28;20192;-84
2021/04/22 07:03:04;;;;;;;8.60;4.63;;;6.60;99.90;;;;;;5057941;28;20192;-84
2021/04/22 07:05:31;;;;;;;10.93;4.50;;;6.70;99.90;;;;;;5050073;28;20212;-85
2021/04/22 07:07:58;;;;;;;10.18;4.82;;;6.80;99.90;;;;;;5048415;28;20272;-84
2021/04/22 07:10:25;;;;;;;18.48;4.53;;;6.80;99.90;;;;;;5048973;28;20185;-86
2021/04/22 07:12:52;;;;;;;11.10;4.07;;;6.80;99.90;;;;;;5047941;28;20268;-83
2021/04/22 07:15:18;;;;;;;14.50;4.43;;;6.80;99.90;;;;;;5055349;28;20193;-83
2021/04/22 07:17:46;;;;;;;18.05;5.18;;;6.90;99.90;;;;;;5048395;28;20288;-83
2021/04/22 07:20:15;;;;;;;8.90;3.72;;;6.90;99.90;;;;;;5046794;28;20180;-86
2021/04/22 07:22:42;;;;;;;12.00;4.40;;;7.00;99.90;;;;;;5044562;28;20227;-84
2021/04/22 07:25:12;;;;;;;9.43;4.20;;;7.10;99.90;;;;;;5044557;28;20296;-84
2021/04/22 07:27:38;;;;;;;12.60;4.63;;;7.30;99.90;;;;;;5040535;28;20249;-82
2021/04/22 07:30:06;;;;;;;8.57;4.15;;;7.30;99.90;;;;;;5036993;28;20189;-83
2021/04/22 07:32:33;;;;;;;10.88;4.10;;;7.40;99.90;;;;;;5037256;28;20556;-84
2021/04/22 07:34:59;;;;;;;8.52;3.42;;;7.40;99.90;;;;;;5036429;28;20189;-84
2021/04/22 07:37:25;;;;;;;9.98;3.97;;;7.60;99.90;;;;;;5036230;28;20591;-84
2021/04/22 07:39:53;;;;;;;10.70;4.00;;;7.80;99.90;;;;;;5037812;28;20191;-84
2021/04/22 07:42:19;;;;;;;7.35;3.22;;;8.00;99.90;;;;;;5036219;28;20338;-84
2021/04/22 07:44:47;;;;;;;14.20;6.35;;;8.00;99.90;;;;;;5035902;28;20185;-84
2021/04/22 07:47:14;;;;;;;8.43;4.63;;;7.90;99.90;;;;;;5036005;28;20237;-84
2021/04/22 07:49:40;;;;;;;15.63;3.03;;;7.80;99.90;;;;;;5036518;28;20234;-84
2021/04/22 07:52:07;;;;;;;7.55;3.75;;;7.90;99.90;;;;;;5037176;28;20193;-84
2021/04/22 07:54:33;;;;;;;8.90;3.38;;;7.80;99.90;;;;;;5038381;28;20616;-83
2021/04/22 07:57:01;;;;;;;8.88;3.80;;;7.60;99.90;;;;;;5036650;28;20201;-83
2021/04/22 07:59:27;;;;;;;14.35;5.70;;;7.40;99.90;;;;;;5035264;28;20203;-83
2021/04/22 08:01:53;;;;;;;9.02;5.15;;;7.40;99.90;;;;;;5036577;28;20196;-83
2021/04/22 08:04:19;;;;;;;11.52;3.08;;;7.40;99.90;;;;;;5044120;28;20707;-83
2021/04/22 08:06:46;;;;;;;11.48;3.00;;;7.70;99.90;;;;;;5047692;28;20228;-84
2021/04/22 08:09:12;;;;;;;8.48;3.38;;;7.70;99.90;;;;;;5046688;28;20596;-83
2021/04/22 08:11:38;;;;;;;9.25;3.67;;;7.70;99.90;;;;;;5045115;28;20219;-83
2021/04/22 08:14:06;;;;;;;12.70;3.40;;;7.80;99.90;;;;;;5043435;28;20192;-83
2021/04/22 08:16:32;;;;;;;13.77;5.18;;;7.80;99.90;;;;;;5041826;28;20193;-83
2021/04/22 08:18:58;;;;;;;12.82;4.63;;;7.70;99.90;;;;;;5041360;28;20200;-83
2021/04/22 08:21:25;;;;;;;15.13;5.22;;;7.60;99.90;;;;;;5039067;28;20197;-83
2021/04/22 08:23:52;;;;;;;16.02;4.63;;;7.50;99.90;;;;;;5038522;28;20189;-83
2021/04/22 08:26:19;;;;;;;7.97;4.38;;;7.50;99.90;;;;;;5042502;28;20215;-83
2021/04/22 08:28:46;;;;;;;7.93;4.45;;;7.50;99.90;;;;;;5036503;28;20643;-83
2021/04/22 08:31:20;;;;;;;8.23;4.47;;;7.50;99.90;;;;;;5035615;28;20188;-83
2021/04/22 08:33:47;;;;;;;15.38;3.85;;;7.70;99.90;;;;;;5035519;28;20216;-83
2021/04/22 08:36:14;;;;;;;8.75;4.22;;;7.90;99.90;;;;;;5034862;28;20196;-83
2021/04/22 08:38:41;;;;;;;12.82;4.10;;;7.90;99.90;;;;;;5035114;28;20188;-83
2021/04/22 08:41:08;;;;;;;12.32;3.78;;;7.80;99.90;;;;;;5035587;28;20556;-83
2021/04/22 08:43:34;;;;;;;11.75;3.95;;;7.70;99.90;;;;;;5035281;28;20195;-83
2021/04/22 08:46:01;;;;;;;8.15;2.90;;;7.60;99.90;;;;;;5035205;28;20213;-83
2021/04/22 08:48:28;;;;;;;12.07;4.38;;;7.60;99.90;;;;;;5034528;28;20640;-84
2021/04/22 08:50:55;;;;;;;9.07;3.45;;;7.60;99.90;;;;;;5034299;28;20185;-84
2021/04/22 08:53:29;;;;;;;9.30;4.18;;;7.60;99.90;;;;;;5034188;28;20185;-83
2021/04/22 08:55:58;;;;;;;12.32;4.53;;;7.60;99.90;;;;;;5034191;28;20200;-84
2021/04/22 08:58:24;;;;;;;9.50;4.13;;;7.70;99.90;;;;;;5034261;28;20189;-84
2021/04/22 09:00:54;;;;;;;5.60;3.55;;;7.80;99.90;;;;;;5033688;28;20188;-84
2021/04/22 09:03:21;;;;;;;10.77;4.72;;;7.80;99.90;;;;;;5035269;28;20193;-84
2021/04/22 09:05:48;;;;;;;8.40;4.40;;;8.00;99.90;;;;;;5034122;28;20208;-83
2021/04/22 09:08:15;;;;;;;10.77;4.68;;;8.20;99.90;;;;;;5034083;28;20185;-83
2021/04/22 09:10:41;;;;;;;10.68;3.67;;;8.30;99.90;;;;;;5034425;28;20227;-83
2021/04/22 09:13:12;;;;;;;8.88;4.38;;;8.40;99.90;;;;;;5033817;28;20224;-83
2021/04/22 09:15:40;;;;;;;18.02;3.97;;;8.60;99.90;;;;;;5033738;28;20235;-83
2021/04/22 09:18:10;;;;;;;12.32;4.88;;;8.80;99.90;;;;;;5033843;28;20188;-84
2021/04/22 09:20:39;;;;;;;8.95;4.40;;;8.90;99.90;;;;;;5033822;28;20200;-83
2021/04/22 09:23:19;;;;;;;12.52;4.38;;;9.00;99.90;;;;;;5033604;28;20632;-84
2021/04/22 09:25:46;;;;;;;19.30;4.25;;;9.10;99.90;;;;;;5034082;28;20274;-84
2021/04/22 09:28:12;;;;;;;9.15;4.43;;;9.40;99.90;;;;;;5034249;28;20189;-84
2021/04/22 09:30:42;;;;;;;9.35;3.92;;;9.60;99.90;;;;;;5033691;28;20223;-84
2021/04/22 09:33:20;;;;;;;6.40;4.00;;;9.70;99.90;;;;;;5033254;28;20227;-84
2021/04/22 09:35:46;;;;;;;7.50;3.75;;;10.00;99.90;;;;;;5034404;28;20251;-83
2021/04/22 09:38:14;;;;;;;18.05;4.57;;;9.90;99.90;;;;;;5033753;28;20188;-83
2021/04/22 09:40:44;;;;;;;7.28;3.75;;;10.00;99.90;;;;;;5033587;28;20204;-83
2021/04/22 09:43:13;;;;;;;11.55;4.07;;;10.00;99.90;;;;;;5033475;28;20193;-84
2021/04/22 09:45:43;;;;;;;11.85;4.53;;;10.10;99.90;;;;;;5033799;28;20251;-84
2021/04/22 09:48:19;;;;;;;12.65;4.75;;;10.30;99.90;;;;;;5034633;28;20580;-84
2021/04/22 09:50:46;;;;;;;13.93;5.05;;;10.20;99.90;;;;;;5034223;28;20513;-83
2021/04/22 09:53:15;;;;;;;12.27;4.65;;;10.20;99.90;;;;;;5033935;28;20188;-83
2021/04/22 09:55:43;;;;;;;19.95;5.18;;;10.10;99.90;;;;;;5033410;28;20189;-83
2021/04/22 09:58:09;;;;;;;8.05;3.38;;;9.80;99.90;;;;;;5033056;28;20195;-82
2021/04/22 10:00:36;;;;;;;10.65;4.10;;;9.50;99.90;;;;;;5033613;28;20666;-82
2021/04/22 10:03:09;;;;;;;6.93;3.40;;;9.30;99.90;;;;;;5033440;28;20275;-82
2021/04/22 10:05:37;;;;;;;9.43;4.07;;;9.50;99.90;;;;;;5033134;28;20240;-83
2021/04/22 10:08:04;;;;;;;5.57;3.53;;;9.70;99.90;;;;;;5033185;28;20184;-83
2021/04/22 10:10:31;;;;;;;12.90;4.18;;;10.00;99.90;;;;;;5034005;28;20283;-85
2021/04/22 10:13:02;;;;;;;11.43;5.00;;;10.30;99.90;;;;;;5038050;28;20185;-85
2021/04/22 10:15:31;;;;;;;7.45;5.05;;;10.40;99.90;;;;;;5037999;28;20193;-83
2021/04/22 10:18:00;;;;;;;9.75;4.38;;;10.80;99.90;;;;;;5038456;28;20192;-83
2021/04/22 10:20:29;;;;;;;7.00;4.60;;;10.60;99.90;;;;;;5037114;28;20210;-83
2021/04/22 10:22:56;;;;;;;14.77;5.07;;;10.60;99.90;;;;;;5035856;28;20726;-83
2021/04/22 10:25:25;;;;;;;8.82;4.70;;;10.80;99.90;;;;;;5037494;28;20212;-83
2021/04/22 10:27:52;;;;;;;10.00;4.75;;;10.80;99.90;;;;;;5036212;28;20197;-84
2021/04/22 10:30:22;;;;;;;10.77;7.03;;;10.90;99.90;;;;;;5036330;28;20181;-84
2021/04/22 10:32:50;;;;;;;11.63;6.03;;;10.30;99.90;;;;;;5029718;28;20223;-85
2021/04/22 10:35:19;;;;;;;9.98;5.65;;;10.10;99.90;;;;;;5037406;28;20257;-84
2021/04/22 10:37:48;;;;;;;7.20;3.95;;;10.20;99.90;;;;;;5036537;28;20188;-84
2021/04/22 10:40:16;;;;;;;10.50;4.70;;;10.50;99.90;;;;;;5042082;28;20180;-85
2021/04/22 10:42:46;;;;;;;17.17;6.82;;;10.60;99.90;;;;;;5057970;28;20193;-85
2021/04/22 10:45:17;;;;;;;7.30;3.95;;;11.10;99.90;;;;;;5034554;28;20189;-84
2021/04/22 10:47:45;;;;;;;7.93;4.60;;;11.00;99.90;;;;;;5028794;28;20264;-86
2021/04/22 10:50:14;;;;;;;9.57;4.50;;;11.10;99.90;;;;;;5022208;28;20236;-87
2021/04/22 10:52:42;;;;;;;9.38;4.38;;;11.10;99.90;;;;;;5028584;28;20189;-86
2021/04/22 10:55:16;;;;;;;11.77;4.32;;;11.00;99.90;;;;;;5027392;28;20669;-87
2021/04/22 10:57:43;;;;;;;10.75;4.47;;;10.80;99.90;;;;;;5028117;28;20193;-87
2021/04/22 11:00:12;;;;;;;11.95;5.55;;;10.70;99.90;;;;;;5033380;28;20581;-87
2021/04/22 11:02:47;;;;;;;7.78;4.35;;;10.90;99.90;;;;;;5036082;28;20193;-88
2021/04/22 11:05:23;;;;;;;6.78;4.15;;;11.20;99.90;;;;;;5035910;28;20192;-85
2021/04/22 11:08:03;;;;;;;8.15;3.85;;;10.70;99.90;;;;;;5053774;28;20231;-86
2021/04/22 11:10:35;;;;;;;7.32;4.18;;;11.00;99.90;;;;;;5037394;28;20184;-87
2021/04/22 11:13:10;;;;;;;10.15;4.30;;;11.20;99.90;;;;;;5023254;28;20235;-87
2021/04/22 11:15:36;;;;;;;12.40;5.30;;;11.60;99.90;;;;;;5028604;28;20200;-86
2021/04/22 11:18:10;;;;;;;10.68;4.30;;;11.90;99.90;;;;;;5041177;28;20192;-84
2021/04/22 11:20:39;;;;;;;6.97;4.05;;;11.90;99.90;;;;;;5041062;28;20189;-83
2021/04/22 11:23:13;;;;;;;8.93;4.43;;;12.10;99.90;;;;;;5036141;28;20191;-82
2021/04/22 11:25:48;;;;;;;17.30;5.13;;;12.30;99.90;;;;;;5038387;28;20220;-82
2021/04/22 11:28:16;;;;;;;8.80;5.10;;;12.00;99.90;;;;;;5039753;28;20185;-82
2021/04/22 11:30:43;;;;;;;10.00;5.90;;;11.90;99.90;;;;;;5034900;28;20278;-82
2021/04/22 11:33:10;;;;;;;7.28;5.32;;;12.20;99.90;;;;;;5022047;28;20209;-82
2021/04/22 11:35:37;;;;;;;10.65;5.07;;;12.40;99.90;;;;;;5027961;28;20185;-81
2021/04/22 11:38:08;;;;;;;9.60;4.07;;;12.80;99.90;;;;;;5029145;28;20196;-82
2021/04/22 11:40:41;;;;;;;9.77;4.90;;;13.00;99.90;;;;;;5026269;28;20583;-82
2021/04/22 11:43:19;;;;;;;7.85;3.55;;;13.50;99.90;;;;;;5033113;28;20189;-82
2021/04/22 11:45:48;;;;;;;7.78;4.07;;;14.20;99.90;;;;;;5033539;28;21343;-82
2021/04/22 11:48:15;;;;;;;8.48;4.63;;;14.80;99.90;;;;;;5034541;28;20201;-82
2021/04/22 11:50:43;;;;;;;14.68;6.43;;;15.10;99.90;;;;;;5035267;28;20189;-81
2021/04/22 11:53:11;;;;;;;9.52;4.35;;;15.20;99.90;;;;;;5035652;28;20206;-82
2021/04/22 11:55:39;;;;;;;8.40;3.35;;;15.90;99.90;;;;;;5016033;28;20197;-82
2021/04/22 11:58:09;;;;;;;7.57;4.78;;;16.50;99.90;;;;;;5031656;28;20185;-83
2021/04/22 12:00:38;;;;;;;6.38;4.47;;;16.60;99.90;;;;;;5034805;28;20194;-82
2021/04/22 12:03:05;;;;;;;10.57;4.88;;;15.50;99.90;;;;;;5034413;28;20250;-82
2021/04/22 12:05:33;;;;;;;6.05;4.00;;;15.40;99.90;;;;;;5035131;28;20192;-82
2021/04/22 12:08:03;;;;;;;14.90;4.72;;;16.00;99.90;;;;;;5037222;28;20204;-82
2021/04/22 12:10:32;;;;;;;9.23;4.20;;;16.90;99.90;;;;;;5039842;28;20222;-82
2021/04/22 12:13:06;;;;;;;9.65;5.82;;;16.30;99.90;;;;;;5039638;28;20592;-82
2021/04/22 12:15:36;;;;;;;8.07;3.88;;;16.20;99.90;;;;;;5037726;28;20196;-82
2021/04/22 12:18:02;;;;;;;11.20;5.78;;;15.80;99.90;;;;;;5041964;28;20181;-81
2021/04/22 12:20:28;;;;;;;9.93;5.20;;;15.90;99.90;;;;;;5050465;28;20205;-82
2021/04/22 12:22:57;;;;;;;9.07;6.15;;;16.60;99.90;;;;;;5049316;28;20425;-81
2021/04/22 12:25:24;;;;;;;13.30;6.00;;;17.60;99.90;;;;;;5049069;28;20449;-82
2021/04/22 12:27:52;;;;;;;13.52;6.53;;;17.50;99.90;;;;;;5048981;28;20415;-82
2021/04/22 12:30:25;;;;;;;10.73;5.30;;;18.00;99.90;;;;;;5038678;28;20468;-82
2021/04/22 12:32:54;;;;;;;10.60;5.05;;;18.40;99.90;;;;;;5034459;28;20907;-83
2021/04/22 12:35:24;;;;;;;11.88;4.78;;;19.00;99.90;;;;;;5017310;28;20648;-82
2021/04/22 12:37:51;;;;;;;11.25;5.10;;;19.00;99.90;;;;;;5033965;28;20419;-82
2021/04/22 12:40:19;;;;;;;12.02;5.60;;;19.10;99.90;;;;;;5032842;28;20473;-82
2021/04/22 12:42:46;;;;;;;10.27;5.22;;;18.50;99.90;;;;;;5032904;28;20430;-82
2021/04/22 12:45:15;;;;;;;7.72;4.05;;;16.90;99.90;;;;;;5033850;28;20184;-84
2021/04/22 12:47:43;;;;;;;8.52;5.60;;;16.50;99.90;;;;;;5033015;28;20856;-86
2021/04/22 12:50:12;;;;;;;9.95;5.38;;;16.60;99.90;;;;;;5034099;28;20665;-84